Redford, Missouri
Current Conditions -  °F | °C
As of 12:15 PM on Thursday 27 Nov 2014 (Local Time) from KFAM Reporting Station
Overcast Overcast  
Wind Chill: 26°   Ceiling: 2700
Heat Index: 34°   Visibility: 10mi
Dew Point: 25°   Wind: 10mph
Humidity: 70%   Direction: 280°W
Pressure: 30.46"   Gusts: NA
Location:  37.32°N, 90.9°W
Report Text: KFAM 271815Z AUTO 28009KT 10SM BKN027 OVC033 01/M04 A3046 RMK AO1
Loading
Personal Weather Stations






























Interactive Weather Map New forecast layout! Learn more

10-Day Weather Forecast

Advertisements
Track Severe Weather on mobile